Time;durP1;ratioP1;P1;durP2;ratioP2;P2;SDS_P1;SDS_P2;PMS_P1;PMS_P2;Temp;Humidity;BMP_temperature;BMP_pressure;BME280_temperature;BME280_humidity;BME280_pressure;Samples;Min_cycle;Max_cycle;Signal;HPM_P1;HPM_P2
2022/10/31 00:01:45;;;;;;;9.50;8.70;;;;;;;8.19;100.00;97536.06;5012166;28;20512;-62
2022/10/31 00:04:13;;;;;;;15.63;8.97;;;;;;;8.19;100.00;97537.91;4981342;28;20894;-65
2022/10/31 00:06:42;;;;;;;8.67;7.97;;;;;;;8.19;100.00;97536.06;5011164;28;20218;-64
2022/10/31 00:09:12;;;;;;;8.13;7.53;;;;;;;8.15;100.00;97540.00;5011748;28;20332;-65
2022/10/31 00:11:40;;;;;;;7.93;7.13;;;;;;;8.21;100.00;97543.84;4990247;28;20287;-62
2022/10/31 00:14:08;;;;;;;11.07;8.90;;;;;;;8.13;100.00;97541.16;5011500;28;20203;-64
2022/10/31 00:16:36;;;;;;;8.57;7.97;;;;;;;8.07;100.00;97540.81;5012945;28;20213;-66
2022/10/31 00:19:07;;;;;;;10.17;9.20;;;;;;;8.06;100.00;97547.06;5011994;28;20225;-65
2022/10/31 00:21:35;;;;;;;8.90;8.10;;;;;;;7.94;100.00;97527.25;4979801;28;20221;-63
2022/10/31 00:24:05;;;;;;;11.73;8.30;;;;;;;7.99;100.00;97540.78;5010735;28;20222;-64
2022/10/31 00:26:35;;;;;;;8.73;7.50;;;;;;;7.93;100.00;97536.13;5013236;28;20281;-64
2022/10/31 00:29:04;;;;;;;10.43;9.43;;;;;;;7.99;100.00;97530.22;4997767;28;20229;-65
2022/10/31 00:31:32;;;;;;;8.60;7.83;;;;;;;7.93;100.00;97536.13;5012303;28;20568;-65
2022/10/31 00:34:02;;;;;;;9.83;8.23;;;;;;;7.80;100.00;97532.13;5011476;28;20203;-64
2022/10/31 00:36:30;;;;;;;10.07;9.07;;;;;;;7.78;100.00;97534.09;4978423;28;20619;-65
2022/10/31 00:38:59;;;;;;;9.20;8.33;;;;;;;7.78;100.00;97531.47;5011530;28;20959;-65
2022/10/31 00:41:27;;;;;;;9.83;8.73;;;;;;;7.68;100.00;97533.38;5012416;28;20217;-63
2022/10/31 00:43:57;;;;;;;10.40;9.20;;;;;;;7.74;100.00;97532.75;4988323;28;20951;-64
2022/10/31 00:46:26;;;;;;;9.20;8.50;;;;;;;7.70;100.00;97528.75;5012746;28;20214;-63
2022/10/31 00:48:54;;;;;;;12.77;9.77;;;;;;;7.64;100.00;97532.03;5008467;28;20219;-63
2022/10/31 00:51:22;;;;;;;11.47;8.90;;;;;;;7.66;100.00;97535.34;4979818;28;20232;-64
2022/10/31 00:53:50;;;;;;;9.47;8.77;;;;;;;7.59;100.00;97536.94;5010673;28;20203;-62
2022/10/31 00:56:18;;;;;;;8.53;7.83;;;;;;;7.62;100.00;97541.91;5013157;28;20205;-64
2022/10/31 00:58:47;;;;;;;9.83;8.60;;;;;;;7.54;100.00;97540.03;4991689;28;20241;-64
2022/10/31 01:01:16;;;;;;;10.67;9.67;;;;;;;7.52;100.00;97536.75;5014888;28;20203;-63
2022/10/31 01:03:45;;;;;;;9.87;8.90;;;;;;;7.45;100.00;97536.56;5006316;28;20792;-62
2022/10/31 01:06:14;;;;;;;12.60;10.17;;;;;;;7.42;100.00;97542.16;4982954;28;20244;-64
2022/10/31 01:08:42;;;;;;;13.20;9.67;;;;;;;7.43;100.00;97540.31;4975763;28;20237;-64
2022/10/31 01:11:13;;;;;;;11.23;9.40;;;;;;;7.41;100.00;97539.66;5008735;28;20203;-63
2022/10/31 01:13:42;;;;;;;9.90;9.10;;;;;;;7.42;100.00;97536.03;5020660;28;20306;-63
2022/10/31 01:16:12;;;;;;;10.87;9.77;;;;;;;7.42;100.00;97534.22;5012531;28;20218;-63
2022/10/31 01:18:42;;;;;;;10.50;9.37;;;;;;;7.47;100.00;97533.75;5014648;28;20230;-63
2022/10/31 01:21:12;;;;;;;9.63;8.73;;;;;;;7.49;100.00;97529.16;5015159;28;20203;-64
2022/10/31 01:23:41;;;;;;;9.63;8.93;;;;;;;7.44;100.00;97529.63;4998678;28;20203;-64
2022/10/31 01:26:11;;;;;;;9.33;8.50;;;;;;;7.45;100.00;97533.09;5004392;28;20222;-62
2022/10/31 01:28:45;;;;;;;10.20;9.20;;;;;;;7.44;100.00;97532.28;5014660;28;20890;-63
2022/10/31 01:31:13;;;;;;;9.53;8.57;;;;;;;7.43;100.00;97538.53;5016173;28;20229;-64
2022/10/31 01:33:43;;;;;;;9.13;8.23;;;;;;;7.37;100.00;97528.56;5013800;28;21234;-63
2022/10/31 01:36:16;;;;;;;10.37;9.17;;;;;;;7.41;100.00;97532.59;5014453;28;20855;-63
2022/10/31 01:38:46;;;;;;;8.90;8.30;;;;;;;7.42;100.00;97530.75;4989236;28;22322;-63
2022/10/31 01:41:16;;;;;;;8.77;8.13;;;;;;;7.39;100.00;97526.63;5012528;28;20211;-61
2022/10/31 01:43:46;;;;;;;10.17;8.87;;;;;;;7.40;100.00;97525.66;5012173;28;21108;-65
2022/10/31 01:46:16;;;;;;;8.60;7.90;;;;;;;7.41;100.00;97523.84;5016103;28;20198;-64
2022/10/31 01:48:46;;;;;;;10.87;8.73;;;;;;;7.36;100.00;97532.19;5012733;28;20223;-62
2022/10/31 01:51:15;;;;;;;8.77;8.00;;;;;;;7.28;100.00;97524.25;5014990;28;20210;-63
2022/10/31 01:53:45;;;;;;;9.50;8.13;;;;;;;7.26;100.00;97529.69;5013174;28;20241;-65
2022/10/31 01:56:14;;;;;;;8.17;7.57;;;;;;;7.24;100.00;97529.81;4980597;28;20203;-63
2022/10/31 01:58:43;;;;;;;8.73;8.03;;;;;;;7.22;100.00;97529.16;5012054;28;20219;-63
2022/10/31 02:01:11;;;;;;;8.27;7.57;;;;;;;7.24;100.00;97529.00;5016301;28;20213;-62
2022/10/31 02:03:40;;;;;;;8.00;7.20;;;;;;;7.30;100.00;97538.09;5018359;28;21540;-66
2022/10/31 02:06:17;;;;;;;10.27;7.87;;;;;;;7.26;100.00;97527.03;5015002;28;20207;-64
2022/10/31 02:08:46;;;;;;;9.50;7.40;;;;;;;7.31;100.00;97526.56;5014953;28;20218;-63
2022/10/31 02:11:15;;;;;;;9.13;8.23;;;;;;;7.20;100.00;97517.13;4983087;28;20211;-63
2022/10/31 02:13:43;;;;;;;8.40;7.60;;;;;;;7.23;100.00;97512.34;5013071;28;20783;-63
2022/10/31 02:16:12;;;;;;;8.87;8.07;;;;;;;7.35;100.00;97527.91;5016444;28;20203;-64
2022/10/31 02:18:40;;;;;;;8.63;7.77;;;;;;;7.22;100.00;97530.97;5013436;28;22124;-62
2022/10/31 02:21:15;;;;;;;9.67;7.57;;;;;;;7.22;100.00;97530.97;5015836;28;21341;-63
2022/10/31 02:24:01;;;;;;;11.87;8.33;;;;;;;7.29;100.00;97532.00;5013338;28;20275;-63
2022/10/31 02:26:52;;;;;;;7.80;7.10;;;;;;;7.30;100.00;97532.81;4982978;28;20214;-64
2022/10/31 02:29:43;;;;;;;7.83;7.23;;;;;;;7.24;100.00;97537.72;4992440;28;20317;-61
2022/10/31 02:32:21;;;;;;;8.30;7.27;;;;;;;7.25;100.00;97541.19;4999091;28;20296;-64
2022/10/31 02:34:55;;;;;;;7.87;7.07;;;;;;;7.26;100.00;97528.84;5011516;28;20206;-64
2022/10/31 02:37:27;;;;;;;10.10;7.43;;;;;;;7.20;100.00;97531.13;5013553;28;20264;-63
2022/10/31 02:39:59;;;;;;;7.47;6.73;;;;;;;7.23;100.00;97530.00;5013219;28;20214;-62
2022/10/31 02:42:33;;;;;;;7.17;6.50;;;;;;;7.14;100.00;97522.97;4983026;28;21279;-64
2022/10/31 02:45:06;;;;;;;13.97;7.80;;;;;;;7.13;100.00;97529.22;5012399;28;20218;-64
2022/10/31 02:47:38;;;;;;;12.33;7.30;;;;;;;7.07;100.00;97528.88;4996935;28;20852;-66
2022/10/31 02:50:11;;;;;;;8.63;7.30;;;;;;;7.11;100.00;97534.69;5013976;28;20355;-64
2022/10/31 02:52:39;;;;;;;12.00;7.87;;;;;;;7.15;100.00;97536.03;5013285;28;20215;-65
2022/10/31 02:55:12;;;;;;;23.23;8.23;;;;;;;7.17;100.00;97528.78;5013701;28;20211;-62
2022/10/31 02:57:42;;;;;;;9.70;7.03;;;;;;;7.22;100.00;97537.06;4992033;28;20227;-65
2022/10/31 03:00:11;;;;;;;9.83;7.57;;;;;;;7.22;100.00;97536.25;5009278;28;20230;-65
2022/10/31 03:02:57;;;;;;;11.43;8.00;;;;;;;7.22;100.00;97542.31;4992918;28;20199;-64
2022/10/31 03:05:41;;;;;;;11.27;8.33;;;;;;;7.22;100.00;97544.16;5014725;28;20284;-65
2022/10/31 03:08:16;;;;;;;7.47;6.73;;;;;;;7.13;100.00;97535.34;5013272;28;20309;-65
2022/10/31 03:10:47;;;;;;;15.57;7.80;;;;;;;7.23;100.00;97540.53;5011438;28;20210;-65
2022/10/31 03:13:22;;;;;;;9.73;7.73;;;;;;;7.25;100.00;97541.19;4982920;28;20235;-66
2022/10/31 03:15:58;;;;;;;7.67;6.60;;;;;;;7.27;100.00;97543.66;4976017;28;20218;-63
2022/10/31 03:18:29;;;;;;;8.20;7.33;;;;;;;7.23;100.00;97549.25;5011378;28;20230;-65
2022/10/31 03:21:02;;;;;;;13.77;7.10;;;;;;;7.14;100.00;97544.91;4990727;28;20211;-60
2022/10/31 03:23:31;;;;;;;7.10;6.40;;;;;;;7.09;100.00;97545.34;5013681;28;20199;-65
2022/10/31 03:26:01;;;;;;;8.73;6.90;;;;;;;7.08;100.00;97550.78;4991267;28;20232;-63
2022/10/31 03:28:32;;;;;;;7.47;6.93;;;;;;;7.12;100.00;97560.03;5013803;28;20349;-63
2022/10/31 03:31:02;;;;;;;12.80;7.20;;;;;;;7.05;100.00;97551.09;4986534;28;20494;-63
2022/10/31 03:33:37;;;;;;;8.30;7.53;;;;;;;7.15;100.00;97551.84;5012628;28;21256;-61
2022/10/31 03:36:06;;;;;;;12.00;7.13;;;;;;;7.11;100.00;97563.66;5010773;28;20214;-64
2022/10/31 03:38:36;;;;;;;7.33;6.57;;;;;;;7.12;100.00;97562.69;5014054;28;20700;-64
2022/10/31 03:41:07;;;;;;;8.47;7.77;;;;;;;6.99;100.00;97564.84;4988825;28;20211;-63
2022/10/31 03:43:40;;;;;;;8.40;7.17;;;;;;;7.06;100.00;97569.38;5013170;28;20215;-64
2022/10/31 03:46:08;;;;;;;11.43;7.30;;;;;;;7.02;100.00;97572.47;5011186;28;20210;-65
2022/10/31 03:48:39;;;;;;;14.13;7.77;;;;;;;7.04;100.00;97576.59;4976138;28;20338;-64
2022/10/31 03:51:12;;;;;;;13.90;6.80;;;;;;;7.02;100.00;97568.03;5012900;28;20210;-62
2022/10/31 03:53:43;;;;;;;13.07;8.50;;;;;;;7.06;100.00;97576.47;5009240;28;20233;-61
2022/10/31 03:56:14;;;;;;;7.13;6.43;;;;;;;6.99;100.00;97575.41;4995267;28;20206;-60
2022/10/31 03:58:45;;;;;;;12.40;7.20;;;;;;;7.02;100.00;97572.47;5001644;28;20280;-57
2022/10/31 04:01:16;;;;;;;6.50;5.93;;;;;;;7.08;100.00;97574.50;5014566;28;20202;-60
2022/10/31 04:03:47;;;;;;;7.00;6.30;;;;;;;7.11;100.00;97571.56;4979655;28;20697;-60
2022/10/31 04:06:16;;;;;;;7.00;6.30;;;;;;;7.05;100.00;97569.53;5013804;28;20221;-58
2022/10/31 04:08:49;;;;;;;7.77;7.00;;;;;;;7.09;100.00;97576.16;5015575;28;20223;-59
2022/10/31 04:11:19;;;;;;;7.53;6.83;;;;;;;7.14;100.00;97573.06;4990981;28;20203;-60
2022/10/31 04:13:48;;;;;;;9.37;6.10;;;;;;;7.09;100.00;97563.81;4987125;28;20230;-63
2022/10/31 04:16:17;;;;;;;8.43;7.50;;;;;;;7.09;100.00;97563.00;5012641;28;20206;-62
2022/10/31 04:18:46;;;;;;;7.60;6.80;;;;;;;7.08;100.00;97561.34;4976381;28;20234;-64
2022/10/31 04:21:14;;;;;;;7.20;6.70;;;;;;;7.09;100.00;97557.72;5011096;28;20211;-63
2022/10/31 04:23:42;;;;;;;16.47;7.27;;;;;;;6.97;100.00;97549.22;5014917;28;20203;-61
2022/10/31 04:26:12;;;;;;;6.70;6.30;;;;;;;6.94;100.00;97544.25;4990759;28;20643;-63
2022/10/31 04:28:40;;;;;;;6.67;6.17;;;;;;;6.90;100.00;97550.81;5011500;28;20231;-61
2022/10/31 04:31:10;;;;;;;8.23;5.80;;;;;;;6.77;100.00;97536.19;5010769;28;20214;-61
2022/10/31 04:33:38;;;;;;;13.00;11.03;;;;;;;6.71;100.00;97543.91;5005908;28;20219;-61
2022/10/31 04:36:08;;;;;;;8.03;7.23;;;;;;;6.69;100.00;97538.75;4991269;28;20219;-62
2022/10/31 04:38:37;;;;;;;7.23;6.47;;;;;;;6.63;100.00;97542.84;5013465;28;20226;-63
2022/10/31 04:41:05;;;;;;;6.57;6.03;;;;;;;6.57;100.00;97551.31;5011104;28;21901;-63
2022/10/31 04:43:33;;;;;;;7.80;7.00;;;;;;;6.44;100.00;97548.22;4991254;28;20641;-61
2022/10/31 04:46:01;;;;;;;7.47;6.77;;;;;;;6.41;100.00;97551.16;5009959;28;21002;-63
2022/10/31 04:48:30;;;;;;;7.13;6.47;;;;;;;6.38;100.00;97557.53;5017126;28;20238;-66
2022/10/31 04:51:01;;;;;;;6.90;6.30;;;;;;;6.44;100.00;97551.69;4979959;28;20217;-62
2022/10/31 04:53:31;;;;;;;7.23;6.73;;;;;;;6.39;100.00;97559.19;5017413;28;20238;-61
2022/10/31 04:56:00;;;;;;;7.07;6.43;;;;;;;6.42;100.00;97560.72;5013862;28;20218;-64
2022/10/31 04:58:28;;;;;;;7.07;6.40;;;;;;;6.48;100.00;97560.13;4996980;28;20230;-64
2022/10/31 05:00:57;;;;;;;6.60;6.10;;;;;;;6.55;100.00;97558.53;5015522;28;21109;-62
2022/10/31 05:03:25;;;;;;;9.27;7.70;;;;;;;6.58;100.00;97554.78;5019499;28;20650;-63
2022/10/31 05:05:53;;;;;;;8.17;7.37;;;;;;;6.57;100.00;97559.22;4984889;28;20234;-62
2022/10/31 05:08:21;;;;;;;6.97;6.30;;;;;;;6.55;100.00;97550.63;5016652;28;20757;-64
2022/10/31 05:10:51;;;;;;;12.67;7.47;;;;;;;6.61;100.00;97559.75;5014896;28;20206;-62
2022/10/31 05:13:19;;;;;;;7.50;7.00;;;;;;;6.62;100.00;97558.78;5015961;28;20206;-65
2022/10/31 05:15:48;;;;;;;7.90;7.30;;;;;;;6.66;100.00;97554.88;4995112;28;20222;-63
2022/10/31 05:18:16;;;;;;;9.70;8.73;;;;;;;6.68;100.00;97555.53;5016293;28;20232;-64
2022/10/31 05:20:45;;;;;;;10.03;8.63;;;;;;;6.72;100.00;97551.63;4984068;28;22168;-63
2022/10/31 05:23:13;;;;;;;8.73;8.03;;;;;;;6.75;100.00;97556.59;4983245;28;20275;-63
2022/10/31 05:25:42;;;;;;;9.47;7.67;;;;;;;6.72;100.00;97554.25;4974825;28;20310;-64
2022/10/31 05:28:11;;;;;;;19.50;7.30;;;;;;;6.70;100.00;97552.78;5012065;28;20816;-63
2022/10/31 05:30:39;;;;;;;21.63;8.43;;;;;;;6.66;100.00;97557.50;4997726;28;20764;-63
2022/10/31 05:33:07;;;;;;;11.70;7.40;;;;;;;6.76;100.00;97558.25;4994174;28;20211;-61
2022/10/31 05:35:36;;;;;;;17.43;7.87;;;;;;;6.72;100.00;97549.00;5016948;28;20223;-62
2022/10/31 05:38:04;;;;;;;13.67;7.20;;;;;;;6.73;100.00;97552.47;4995159;28;20231;-61
2022/10/31 05:40:33;;;;;;;5.87;5.50;;;;;;;6.71;100.00;97541.25;4986283;28;20218;-62
2022/10/31 05:43:01;;;;;;;7.93;6.23;;;;;;;6.63;100.00;97550.75;5014669;28;20863;-62
2022/10/31 05:45:32;;;;;;;16.93;7.50;;;;;;;6.68;100.00;97549.47;4983264;28;20257;-61
2022/10/31 05:48:01;;;;;;;8.03;7.33;;;;;;;6.60;100.00;97539.66;4992805;28;20242;-65
2022/10/31 05:50:31;;;;;;;13.93;9.27;;;;;;;6.58;100.00;97541.63;4992194;28;20214;-60
2022/10/31 05:53:00;;;;;;;7.90;7.20;;;;;;;6.49;100.00;97530.19;5018717;28;20203;-63
2022/10/31 05:55:29;;;;;;;15.57;9.00;;;;;;;6.52;100.00;97543.03;4981438;28;20661;-62
2022/10/31 05:57:58;;;;;;;11.33;7.37;;;;;;;6.57;100.00;97545.22;5016441;28;20650;-64
2022/10/31 06:00:27;;;;;;;13.13;7.43;;;;;;;6.49;100.00;97538.91;4993771;28;20207;-61
2022/10/31 06:03:04;;;;;;;11.07;7.87;;;;;;;6.49;100.00;97544.19;4976108;28;20705;-61
2022/10/31 06:05:33;;;;;;;11.30;8.00;;;;;;;6.46;100.00;97544.47;5013627;28;22125;-64
2022/10/31 06:08:02;;;;;;;14.63;7.10;;;;;;;6.42;100.00;97551.00;5016832;28;20239;-64
2022/10/31 06:10:30;;;;;;;21.27;8.87;;;;;;;6.42;100.00;97547.56;4979975;28;20293;-64
2022/10/31 06:12:59;;;;;;;6.87;6.17;;;;;;;6.37;100.00;97547.97;5014151;28;20211;-65
2022/10/31 06:15:27;;;;;;;14.63;7.00;;;;;;;6.32;100.00;97548.44;5012577;28;20219;-64
2022/10/31 06:18:06;;;;;;;17.97;6.30;;;;;;;6.34;100.00;97559.66;4996804;28;20230;-65
2022/10/31 06:20:35;;;;;;;7.97;6.90;;;;;;;6.44;100.00;97553.50;4994185;28;20214;-65
2022/10/31 06:23:03;;;;;;;9.00;7.27;;;;;;;6.50;100.00;97560.78;5015413;28;20344;-64
2022/10/31 06:25:32;;;;;;;11.93;6.63;;;;;;;6.54;100.00;97566.59;4976869;28;20214;-63
2022/10/31 06:28:00;;;;;;;12.40;7.43;;;;;;;6.52;100.00;97566.72;5016302;28;20365;-65
2022/10/31 06:30:29;;;;;;;12.00;7.43;;;;;;;6.54;100.00;97566.59;5012549;28;20210;-65
2022/10/31 06:33:02;;;;;;;7.50;6.70;;;;;;;6.62;100.00;97566.69;4997049;28;20214;-64
2022/10/31 06:35:32;;;;;;;6.60;6.00;;;;;;;6.69;100.00;97562.47;4991778;28;20245;-62
2022/10/31 06:38:00;;;;;;;9.50;7.33;;;;;;;6.64;100.00;97570.81;4989964;28;20408;-65
2022/10/31 06:40:29;;;;;;;18.67;8.00;;;;;;;6.53;100.00;97572.84;4982856;28;20847;-65
2022/10/31 06:42:58;;;;;;;8.30;5.83;;;;;;;6.63;100.00;97573.59;4989580;28;20211;-65
2022/10/31 06:45:26;;;;;;;9.77;6.07;;;;;;;6.60;100.00;97572.06;4941752;28;22636;-66
2022/10/31 06:47:55;;;;;;;9.00;6.73;;;;;;;6.64;100.00;97580.50;4995471;28;20249;-65
2022/10/31 06:50:45;;;;;;;6.90;6.17;;;;;;;6.73;100.00;97573.53;4988683;28;20430;-65
2022/10/31 06:53:13;;;;;;;10.20;7.37;;;;;;;6.75;100.00;97582.91;5015548;28;20206;-63
2022/10/31 06:55:43;;;;;;;6.80;6.27;;;;;;;6.86;100.00;97589.78;4985021;28;20229;-64
2022/10/31 06:58:11;;;;;;;8.30;7.70;;;;;;;6.69;100.00;97594.06;5015479;28;20253;-65
2022/10/31 07:00:39;;;;;;;8.77;8.13;;;;;;;6.55;100.00;97587.50;4993595;28;20210;-65
2022/10/31 07:03:11;;;;;;;15.97;8.77;;;;;;;6.64;100.00;97589.25;5013933;28;20349;-64
2022/10/31 07:05:40;;;;;;;8.23;7.63;;;;;;;6.83;100.00;97590.09;4999978;28;20200;-64
2022/10/31 07:08:11;;;;;;;9.87;8.90;;;;;;;6.83;100.00;97594.53;4988920;28;20272;-64
2022/10/31 07:10:41;;;;;;;11.03;8.90;;;;;;;6.69;100.00;97596.69;4964369;28;20210;-65
2022/10/31 07:13:12;;;;;;;40.87;14.23;;;;;;;6.40;100.00;97604.78;5012607;28;20828;-64
2022/10/31 07:15:42;;;;;;;15.23;10.03;;;;;;;6.41;100.00;97594.09;4992469;28;21276;-63
2022/10/31 07:18:12;;;;;;;25.20;11.00;;;;;;;6.53;100.00;97599.97;5008760;28;20235;-63
2022/10/31 07:20:40;;;;;;;16.50;11.03;;;;;;;6.54;100.00;97599.00;5001274;28;20210;-65
2022/10/31 07:23:10;;;;;;;25.17;12.40;;;;;;;6.69;100.00;97598.50;4990007;28;20215;-64
2022/10/31 07:25:38;;;;;;;28.30;11.43;;;;;;;6.78;100.00;97593.16;4976482;28;20961;-65
2022/10/31 07:28:07;;;;;;;36.30;10.93;;;;;;;6.91;100.00;97608.59;5013304;28;22281;-64
2022/10/31 07:30:36;;;;;;;19.27;8.30;;;;;;;6.92;100.00;97601.53;4991904;28;20225;-62
2022/10/31 07:33:05;;;;;;;14.97;7.87;;;;;;;7.06;100.00;97598.34;4981024;28;20269;-67
2022/10/31 07:35:34;;;;;;;8.23;7.53;;;;;;;6.89;100.00;97600.00;5010471;28;20227;-66
2022/10/31 07:38:11;;;;;;;14.07;8.60;;;;;;;6.88;100.00;97598.34;4981622;28;20234;-64
2022/10/31 07:40:40;;;;;;;8.70;8.00;;;;;;;6.98;100.00;97608.00;5011771;28;20214;-63
2022/10/31 07:43:08;;;;;;;9.20;8.40;;;;;;;7.20;100.00;97604.09;4996638;28;20218;-65
2022/10/31 07:45:42;;;;;;;8.80;7.90;;;;;;;7.39;100.00;97606.53;4985182;28;20206;-63
2022/10/31 07:48:11;;;;;;;7.97;7.30;;;;;;;7.33;100.00;97607.16;5015493;28;20222;-65
2022/10/31 07:50:39;;;;;;;9.23;7.93;;;;;;;7.31;100.00;97598.56;5010561;28;20989;-63
2022/10/31 07:53:10;;;;;;;7.93;7.37;;;;;;;7.46;100.00;97596.22;4991842;28;20214;-64
2022/10/31 07:55:39;;;;;;;8.10;7.40;;;;;;;7.63;100.00;97599.78;5009993;28;20226;-64
2022/10/31 07:58:09;;;;;;;7.83;7.23;;;;;;;7.96;100.00;97599.16;4995245;28;20234;-65
2022/10/31 08:00:38;;;;;;;9.20;7.53;;;;;;;7.95;100.00;97598.34;5011535;28;20206;-63
2022/10/31 08:03:08;;;;;;;9.40;8.60;;;;;;;8.06;100.00;97599.84;4983322;28;21102;-63
2022/10/31 08:05:36;;;;;;;9.83;8.90;;;;;;;8.10;100.00;97595.09;5008895;28;20229;-62
2022/10/31 08:08:05;;;;;;;10.13;9.30;;;;;;;7.96;100.00;97588.59;5013250;28;20252;-63
2022/10/31 08:10:36;;;;;;;8.63;7.93;;;;;;;8.10;100.00;97584.53;4986462;28;20299;-66
2022/10/31 08:13:06;;;;;;;10.30;9.37;;;;;;;8.15;100.00;97587.53;5012740;28;20203;-64
2022/10/31 08:15:37;;;;;;;9.67;8.87;;;;;;;8.30;100.00;97582.47;4995905;28;20755;-64
2022/10/31 08:18:05;;;;;;;8.73;7.97;;;;;;;8.47;100.00;97577.22;4985766;28;20230;-64
2022/10/31 08:20:33;;;;;;;9.13;8.30;;;;;;;8.50;100.00;97576.94;5009771;28;20207;-65
2022/10/31 08:23:03;;;;;;;10.13;7.67;;;;;;;8.56;100.00;97575.47;5011160;28;20199;-63
2022/10/31 08:25:33;;;;;;;11.67;7.63;;;;;;;8.63;100.00;97571.19;4986724;28;20215;-65
2022/10/31 08:28:07;;;;;;;9.30;8.50;;;;;;;8.75;100.00;97564.63;5012989;28;20277;-64
2022/10/31 08:30:37;;;;;;;9.37;7.87;;;;;;;8.72;100.00;97557.03;4991494;28;20211;-64
2022/10/31 08:33:07;;;;;;;8.40;7.70;;;;;;;9.09;100.00;97561.03;4981610;28;20339;-64
2022/10/31 08:35:36;;;;;;;9.37;7.33;;;;;;;10.45;100.00;97557.72;5010231;28;20235;-66
2022/10/31 08:38:04;;;;;;;7.97;7.27;;;;;;;11.75;100.00;97544.56;5013742;28;20230;-61
2022/10/31 08:40:34;;;;;;;7.80;7.20;;;;;;;12.94;100.00;97526.75;4961030;28;20215;-65
2022/10/31 08:43:04;;;;;;;7.00;6.57;;;;;;;13.55;100.00;97521.94;5009961;28;20215;-64
2022/10/31 08:45:34;;;;;;;8.23;7.63;;;;;;;12.47;100.00;97513.00;4993815;28;20936;-65
2022/10/31 08:48:04;;;;;;;8.27;7.57;;;;;;;11.81;100.00;97508.53;4979770;28;20226;-64
2022/10/31 08:50:34;;;;;;;7.23;6.60;;;;;;;11.33;100.00;97500.91;5010564;28;20203;-63
2022/10/31 08:53:03;;;;;;;7.80;7.13;;;;;;;11.13;100.00;97509.34;5010443;28;20202;-65
2022/10/31 08:55:34;;;;;;;7.33;6.80;;;;;;;11.20;100.00;97499.69;4996377;28;20229;-64
2022/10/31 08:58:03;;;;;;;6.30;5.80;;;;;;;10.93;100.00;97504.56;4985160;28;20226;-63
2022/10/31 09:00:33;;;;;;;6.03;5.63;;;;;;;10.90;100.00;97504.91;5013915;28;20210;-61
2022/10/31 09:03:02;;;;;;;6.37;5.93;;;;;;;11.11;100.00;97503.41;4976676;28;22378;-62
2022/10/31 09:05:31;;;;;;;7.10;6.60;;;;;;;11.02;100.00;97501.84;5010876;28;20213;-63
2022/10/31 09:08:01;;;;;;;7.97;7.17;;;;;;;11.18;100.00;97503.53;5011007;28;22063;-62
2022/10/31 09:10:30;;;;;;;6.73;6.33;;;;;;;11.23;100.00;97504.63;4990275;28;20211;-62
2022/10/31 09:12:58;;;;;;;7.30;6.80;;;;;;;11.41;100.00;97503.47;4985764;28;20214;-62
2022/10/31 09:15:27;;;;;;;7.03;6.47;;;;;;;11.34;100.00;97506.00;5010721;28;20226;-64
2022/10/31 09:17:57;;;;;;;7.17;6.57;;;;;;;11.42;100.00;97497.16;4960448;28;20238;-66
2022/10/31 09:20:26;;;;;;;6.10;5.70;;;;;;;11.74;100.00;97495.16;5009991;28;20319;-63
2022/10/31 09:22:58;;;;;;;6.70;6.17;;;;;;;12.09;100.00;97500.72;5011041;28;20315;-62
2022/10/31 09:25:27;;;;;;;6.60;6.00;;;;;;;12.21;100.00;97490.47;4989922;28;20230;-62
2022/10/31 09:27:57;;;;;;;6.90;6.40;;;;;;;12.27;100.00;97491.53;4986509;28;20226;-63
2022/10/31 09:30:27;;;;;;;8.13;7.33;;;;;;;12.05;100.00;97493.31;5012559;28;20673;-64
2022/10/31 09:32:59;;;;;;;7.53;7.03;;;;;;;12.15;100.00;97501.84;4976911;28;20830;-62
2022/10/31 09:35:27;;;;;;;11.37;9.43;;;;;;;12.16;100.00;97493.66;5013273;28;20296;-62
2022/10/31 09:37:56;;;;;;;7.33;6.63;;;;;;;11.88;100.00;97501.47;5021359;28;20234;-62
2022/10/31 09:40:28;;;;;;;11.63;10.60;;;;;;;12.07;100.00;97505.41;4950278;28;20308;-62
2022/10/31 09:43:03;;;;;;;11.63;10.07;;;;;;;12.05;100.00;97495.97;5015871;28;20211;-63
2022/10/31 09:45:35;;;;;;;6.70;6.10;;;;;;;11.86;100.00;97496.31;4969631;28;20931;-62
2022/10/31 09:48:16;;;;;;;7.17;6.47;;;;;;;11.36;100.00;97489.91;5019465;28;20223;-64
2022/10/31 09:50:47;;;;;;;6.80;6.30;;;;;;;11.60;100.00;97488.84;5016930;28;20199;-63
2022/10/31 09:53:23;;;;;;;7.10;6.43;;;;;;;11.57;100.00;97494.50;4996755;28;20206;-61
2022/10/31 09:55:52;;;;;;;6.77;6.27;;;;;;;11.51;100.00;97497.91;5016273;28;20226;-64
2022/10/31 09:58:25;;;;;;;7.10;6.50;;;;;;;11.53;100.00;97488.72;5014887;28;20990;-63
2022/10/31 10:00:55;;;;;;;6.57;6.17;;;;;;;11.85;100.00;97488.56;5015398;28;20230;-63
2022/10/31 10:03:30;;;;;;;7.13;6.70;;;;;;;12.10;100.00;97482.94;4991124;28;20222;-65
2022/10/31 10:06:05;;;;;;;7.17;6.50;;;;;;;12.05;100.00;97486.19;5017075;28;21057;-62
2022/10/31 10:08:34;;;;;;;7.10;6.60;;;;;;;12.27;100.00;97483.56;4987671;28;20227;-65
2022/10/31 10:11:24;;;;;;;6.20;5.80;;;;;;;12.11;100.00;97485.44;4974357;28;20211;-64
2022/10/31 10:14:05;;;;;;;11.70;10.50;;;;;;;11.86;100.00;97482.25;4995783;28;20879;-64
2022/10/31 10:16:45;;;;;;;15.73;14.27;;;;;;;12.08;100.00;97475.19;5014713;28;20233;-63
2022/10/31 10:19:26;;;;;;;7.00;6.33;;;;;;;12.02;100.00;97473.28;5003272;28;20246;-62
2022/10/31 10:21:59;;;;;;;7.20;6.63;;;;;;;12.04;100.00;97473.91;5015303;28;20210;-62
2022/10/31 10:24:49;;;;;;;6.90;6.20;;;;;;;12.16;100.00;97471.59;4984550;28;20215;-66
2022/10/31 10:27:23;;;;;;;6.53;6.07;;;;;;;12.27;100.00;97467.63;5013304;28;20573;-63
2022/10/31 10:29:54;;;;;;;5.67;5.27;;;;;;;12.42;100.00;97457.78;5014005;28;20217;-65
2022/10/31 10:32:24;;;;;;;5.70;5.30;;;;;;;12.61;100.00;97460.00;4970930;28;20986;-64
2022/10/31 10:35:00;;;;;;;5.83;5.17;;;;;;;12.59;100.00;97458.34;5021536;28;20203;-65
2022/10/31 10:37:32;;;;;;;6.30;5.43;;;;;;;12.69;100.00;97451.88;5016297;28;21197;-64
2022/10/31 10:40:08;;;;;;;7.67;6.97;;;;;;;12.57;100.00;97451.56;4981313;28;20219;-63
2022/10/31 10:48:13;;;;;;;6.87;6.30;;;;;;;13.06;100.00;97446.44;4992137;28;20218;-64
2022/10/31 10:50:47;;;;;;;9.17;7.60;;;;;;;13.05;100.00;97436.81;5017346;28;20364;-66
2022/10/31 10:53:35;;;;;;;7.57;6.87;;;;;;;13.11;100.00;97431.56;5014974;28;20203;-64
2022/10/31 10:56:12;;;;;;;8.80;6.87;;;;;;;13.44;100.00;97438.97;4981353;28;20218;-62
2022/10/31 10:58:42;;;;;;;7.53;6.67;;;;;;;13.64;100.00;97419.63;5016416;28;20261;-64
2022/10/31 11:01:13;;;;;;;9.27;8.53;;;;;;;13.71;100.00;97430.28;5015048;28;20211;-64
2022/10/31 11:03:42;;;;;;;8.40;7.53;;;;;;;13.60;100.00;97421.00;4996926;28;20222;-66
2022/10/31 11:06:25;;;;;;;10.00;7.13;;;;;;;13.87;100.00;97418.47;5018536;28;20202;-63
2022/10/31 11:08:54;;;;;;;7.80;7.00;;;;;;;13.84;100.00;97411.72;5024478;28;20276;-63
2022/10/31 11:11:27;;;;;;;7.67;7.00;;;;;;;13.92;100.00;97412.56;4985075;28;20339;-62
2022/10/31 11:13:59;;;;;;;7.13;6.63;;;;;;;13.93;100.00;97407.00;5020205;28;20579;-64
2022/10/31 11:16:33;;;;;;;7.40;6.80;;;;;;;14.16;100.00;97403.19;5018984;28;20207;-61
2022/10/31 11:19:09;;;;;;;8.90;7.93;;;;;;;14.01;100.00;97400.69;4998645;28;22148;-62
2022/10/31 11:21:39;;;;;;;22.17;19.03;;;;;;;14.17;100.00;97405.66;5016384;28;20206;-63
2022/10/31 11:24:15;;;;;;;15.53;13.00;;;;;;;14.19;100.00;97398.25;5014032;28;20765;-63
2022/10/31 11:26:45;;;;;;;9.83;8.83;;;;;;;14.29;100.00;97400.53;4977536;28;20447;-65
2022/10/31 11:29:16;;;;;;;8.27;7.57;;;;;;;14.43;100.00;97392.59;5009711;28;21238;-63
2022/10/31 11:31:45;;;;;;;8.00;7.30;;;;;;;14.41;100.00;97384.78;5013238;28;20254;-65
2022/10/31 11:34:17;;;;;;;7.87;7.13;;;;;;;14.21;100.00;97391.94;4991156;28;20210;-65
2022/10/31 11:36:47;;;;;;;10.10;8.20;;;;;;;14.27;100.00;97381.28;5015674;28;20749;-64
2022/10/31 11:39:19;;;;;;;9.30;7.63;;;;;;;14.46;100.00;97381.53;4995443;28;21303;-65
2022/10/31 11:41:49;;;;;;;8.00;7.33;;;;;;;14.58;100.00;97381.69;5007391;28;20206;-63
2022/10/31 11:44:20;;;;;;;8.37;7.67;;;;;;;14.51;100.00;97380.88;4997085;28;20225;-64
2022/10/31 11:46:50;;;;;;;8.50;7.87;;;;;;;14.57;100.00;97374.72;4979063;28;20206;-64
2022/10/31 11:49:20;;;;;;;8.17;7.33;;;;;;;14.60;100.00;97372.50;5010008;28;20243;-65
2022/10/31 11:51:52;;;;;;;8.93;8.17;;;;;;;14.59;100.00;97378.84;5016176;28;20893;-63